sensor_id;sensor_type;location;lat;lon;timestamp;P1;durP1;ratioP1;P2;durP2;ratioP2
59109;SDS011;44895;47.438;18.978;2023-05-07T00:00:22;10.23;;;6.00;;
59109;SDS011;44895;47.438;18.978;2023-05-07T00:03:26;8.50;;;5.75;;
59109;SDS011;44895;47.438;18.978;2023-05-07T00:06:31;8.32;;;5.30;;
59109;SDS011;44895;47.438;18.978;2023-05-07T00:09:35;9.25;;;5.60;;
59109;SDS011;44895;47.438;18.978;2023-05-07T00:15:43;8.18;;;5.25;;
59109;SDS011;44895;47.438;18.978;2023-05-07T00:18:47;10.80;;;5.18;;
59109;SDS011;44895;47.438;18.978;2023-05-07T00:21:51;8.02;;;4.60;;
59109;SDS011;44895;47.438;18.978;2023-05-07T00:24:57;8.05;;;4.65;;
59109;SDS011;44895;47.438;18.978;2023-05-07T00:28:01;8.68;;;4.47;;
59109;SDS011;44895;47.438;18.978;2023-05-07T00:31:06;7.78;;;4.43;;
59109;SDS011;44895;47.438;18.978;2023-05-07T00:34:10;7.05;;;4.05;;
59109;SDS011;44895;47.438;18.978;2023-05-07T00:37:14;7.57;;;4.63;;
59109;SDS011;44895;47.438;18.978;2023-05-07T00:40:17;7.93;;;5.00;;
59109;SDS011;44895;47.438;18.978;2023-05-07T00:43:21;7.85;;;4.40;;
59109;SDS011;44895;47.438;18.978;2023-05-07T00:46:25;7.32;;;4.22;;
59109;SDS011;44895;47.438;18.978;2023-05-07T00:49:33;7.43;;;4.80;;
59109;SDS011;44895;47.438;18.978;2023-05-07T00:52:41;7.78;;;4.05;;
59109;SDS011;44895;47.438;18.978;2023-05-07T00:55:45;7.70;;;3.85;;
59109;SDS011;44895;47.438;18.978;2023-05-07T00:58:49;8.10;;;4.45;;
59109;SDS011;44895;47.438;18.978;2023-05-07T01:01:54;9.80;;;4.03;;
59109;SDS011;44895;47.438;18.978;2023-05-07T01:04:57;7.53;;;3.38;;
59109;SDS011;44895;47.438;18.978;2023-05-07T01:08:01;8.55;;;3.90;;
59109;SDS011;44895;47.438;18.978;2023-05-07T01:11:06;8.02;;;5.00;;
59109;SDS011;44895;47.438;18.978;2023-05-07T01:14:11;8.73;;;4.68;;
59109;SDS011;44895;47.438;18.978;2023-05-07T01:17:15;7.05;;;3.85;;
59109;SDS011;44895;47.438;18.978;2023-05-07T01:20:19;8.52;;;4.28;;
59109;SDS011;44895;47.438;18.978;2023-05-07T01:23:25;7.45;;;4.13;;
59109;SDS011;44895;47.438;18.978;2023-05-07T01:26:30;7.78;;;4.25;;
59109;SDS011;44895;47.438;18.978;2023-05-07T01:29:34;7.38;;;4.32;;
59109;SDS011;44895;47.438;18.978;2023-05-07T01:32:58;7.05;;;4.38;;
59109;SDS011;44895;47.438;18.978;2023-05-07T01:36:10;9.10;;;4.55;;
59109;SDS011;44895;47.438;18.978;2023-05-07T01:39:15;8.63;;;4.00;;
59109;SDS011;44895;47.438;18.978;2023-05-07T01:42:19;7.20;;;3.97;;
59109;SDS011;44895;47.438;18.978;2023-05-07T01:45:24;8.13;;;4.53;;
59109;SDS011;44895;47.438;18.978;2023-05-07T01:48:28;7.45;;;4.13;;
59109;SDS011;44895;47.438;18.978;2023-05-07T01:51:32;9.75;;;4.15;;
59109;SDS011;44895;47.438;18.978;2023-05-07T01:54:37;7.25;;;4.38;;
59109;SDS011;44895;47.438;18.978;2023-05-07T01:57:42;7.90;;;4.60;;
59109;SDS011;44895;47.438;18.978;2023-05-07T02:00:47;8.52;;;3.72;;
59109;SDS011;44895;47.438;18.978;2023-05-07T02:03:50;7.85;;;4.20;;
59109;SDS011;44895;47.438;18.978;2023-05-07T02:06:59;7.78;;;4.40;;
59109;SDS011;44895;47.438;18.978;2023-05-07T02:10:03;9.05;;;4.80;;
59109;SDS011;44895;47.438;18.978;2023-05-07T02:13:08;7.80;;;4.05;;
59109;SDS011;44895;47.438;18.978;2023-05-07T02:16:12;9.32;;;5.05;;
59109;SDS011;44895;47.438;18.978;2023-05-07T02:19:18;8.25;;;4.40;;
59109;SDS011;44895;47.438;18.978;2023-05-07T02:22:24;9.57;;;6.03;;
59109;SDS011;44895;47.438;18.978;2023-05-07T02:25:28;10.77;;;4.90;;
59109;SDS011;44895;47.438;18.978;2023-05-07T02:28:33;13.07;;;6.15;;
59109;SDS011;44895;47.438;18.978;2023-05-07T02:31:40;12.65;;;5.90;;
59109;SDS011;44895;47.438;18.978;2023-05-07T02:34:44;9.20;;;5.53;;
59109;SDS011;44895;47.438;18.978;2023-05-07T02:37:48;9.70;;;5.68;;
59109;SDS011;44895;47.438;18.978;2023-05-07T02:40:53;8.77;;;5.28;;
59109;SDS011;44895;47.438;18.978;2023-05-07T02:43:57;9.18;;;5.82;;
59109;SDS011;44895;47.438;18.978;2023-05-07T02:47:00;9.75;;;5.82;;
59109;SDS011;44895;47.438;18.978;2023-05-07T02:50:04;9.65;;;5.55;;
59109;SDS011;44895;47.438;18.978;2023-05-07T02:53:09;12.45;;;7.30;;
59109;SDS011;44895;47.438;18.978;2023-05-07T02:56:13;10.20;;;5.78;;
59109;SDS011;44895;47.438;18.978;2023-05-07T02:59:17;10.30;;;6.13;;
59109;SDS011;44895;47.438;18.978;2023-05-07T03:02:21;10.38;;;6.78;;
59109;SDS011;44895;47.438;18.978;2023-05-07T03:05:24;11.65;;;6.28;;
59109;SDS011;44895;47.438;18.978;2023-05-07T03:08:28;10.48;;;6.55;;
59109;SDS011;44895;47.438;18.978;2023-05-07T03:11:32;10.23;;;6.57;;
59109;SDS011;44895;47.438;18.978;2023-05-07T03:14:35;9.40;;;5.40;;
59109;SDS011;44895;47.438;18.978;2023-05-07T03:17:39;10.30;;;6.95;;
59109;SDS011;44895;47.438;18.978;2023-05-07T03:20:43;12.02;;;7.10;;
59109;SDS011;44895;47.438;18.978;2023-05-07T03:23:47;15.50;;;8.85;;
59109;SDS011;44895;47.438;18.978;2023-05-07T03:26:50;21.65;;;9.70;;
59109;SDS011;44895;47.438;18.978;2023-05-07T03:29:54;17.40;;;7.47;;
59109;SDS011;44895;47.438;18.978;2023-05-07T03:32:59;12.43;;;7.53;;
59109;SDS011;44895;47.438;18.978;2023-05-07T03:36:03;11.07;;;6.97;;
59109;SDS011;44895;47.438;18.978;2023-05-07T03:39:07;10.73;;;5.82;;
59109;SDS011;44895;47.438;18.978;2023-05-07T03:42:15;8.93;;;5.68;;
59109;SDS011;44895;47.438;18.978;2023-05-07T03:45:19;9.60;;;6.57;;
59109;SDS011;44895;47.438;18.978;2023-05-07T03:48:31;11.98;;;5.90;;
59109;SDS011;44895;47.438;18.978;2023-05-07T03:51:36;9.13;;;4.55;;
59109;SDS011;44895;47.438;18.978;2023-05-07T03:54:41;8.30;;;4.65;;
59109;SDS011;44895;47.438;18.978;2023-05-07T03:57:45;8.18;;;4.78;;
59109;SDS011;44895;47.438;18.978;2023-05-07T04:00:48;10.48;;;5.03;;
59109;SDS011;44895;47.438;18.978;2023-05-07T04:04:04;10.50;;;6.65;;
59109;SDS011;44895;47.438;18.978;2023-05-07T04:07:10;12.23;;;5.90;;
59109;SDS011;44895;47.438;18.978;2023-05-07T04:10:18;7.85;;;4.85;;
59109;SDS011;44895;47.438;18.978;2023-05-07T04:13:24;8.65;;;5.25;;
59109;SDS011;44895;47.438;18.978;2023-05-07T04:16:29;10.00;;;6.05;;
59109;SDS011;44895;47.438;18.978;2023-05-07T04:19:33;14.88;;;6.78;;
59109;SDS011;44895;47.438;18.978;2023-05-07T04:22:37;11.75;;;6.85;;
59109;SDS011;44895;47.438;18.978;2023-05-07T04:25:41;16.83;;;6.35;;
59109;SDS011;44895;47.438;18.978;2023-05-07T04:28:53;18.75;;;7.13;;
59109;SDS011;44895;47.438;18.978;2023-05-07T04:31:56;8.75;;;5.28;;
59109;SDS011;44895;47.438;18.978;2023-05-07T04:35:02;9.10;;;4.40;;
59109;SDS011;44895;47.438;18.978;2023-05-07T04:38:07;7.07;;;3.60;;
59109;SDS011;44895;47.438;18.978;2023-05-07T04:41:12;7.80;;;4.07;;
59109;SDS011;44895;47.438;18.978;2023-05-07T04:44:18;7.47;;;3.95;;
59109;SDS011;44895;47.438;18.978;2023-05-07T04:47:22;7.38;;;3.97;;
59109;SDS011;44895;47.438;18.978;2023-05-07T04:50:28;10.60;;;4.10;;
59109;SDS011;44895;47.438;18.978;2023-05-07T04:53:35;7.82;;;4.22;;
59109;SDS011;44895;47.438;18.978;2023-05-07T04:56:40;7.88;;;4.80;;
59109;SDS011;44895;47.438;18.978;2023-05-07T04:59:43;8.98;;;4.45;;
59109;SDS011;44895;47.438;18.978;2023-05-07T05:02:48;8.07;;;4.82;;
59109;SDS011;44895;47.438;18.978;2023-05-07T05:05:55;9.90;;;4.85;;
59109;SDS011;44895;47.438;18.978;2023-05-07T05:09:04;8.68;;;5.18;;
59109;SDS011;44895;47.438;18.978;2023-05-07T05:12:09;10.18;;;5.30;;
59109;SDS011;44895;47.438;18.978;2023-05-07T05:15:15;10.57;;;6.40;;
59109;SDS011;44895;47.438;18.978;2023-05-07T05:18:19;8.18;;;4.35;;
59109;SDS011;44895;47.438;18.978;2023-05-07T05:21:24;10.38;;;5.00;;
59109;SDS011;44895;47.438;18.978;2023-05-07T05:24:31;9.55;;;6.00;;
59109;SDS011;44895;47.438;18.978;2023-05-07T05:27:36;8.38;;;5.45;;
59109;SDS011;44895;47.438;18.978;2023-05-07T05:30:40;9.57;;;6.07;;
59109;SDS011;44895;47.438;18.978;2023-05-07T05:33:46;8.98;;;5.10;;
59109;SDS011;44895;47.438;18.978;2023-05-07T05:36:49;12.48;;;5.38;;
59109;SDS011;44895;47.438;18.978;2023-05-07T05:39:53;8.65;;;4.68;;
59109;SDS011;44895;47.438;18.978;2023-05-07T05:42:58;8.25;;;4.88;;
59109;SDS011;44895;47.438;18.978;2023-05-07T05:46:03;8.55;;;4.57;;
59109;SDS011;44895;47.438;18.978;2023-05-07T05:49:08;7.18;;;3.65;;
59109;SDS011;44895;47.438;18.978;2023-05-07T05:52:12;6.07;;;3.15;;
59109;SDS011;44895;47.438;18.978;2023-05-07T05:55:17;7.45;;;3.53;;
59109;SDS011;44895;47.438;18.978;2023-05-07T05:58:21;6.63;;;3.30;;
59109;SDS011;44895;47.438;18.978;2023-05-07T06:01:30;7.00;;;3.60;;
59109;SDS011;44895;47.438;18.978;2023-05-07T06:04:38;6.43;;;2.70;;
59109;SDS011;44895;47.438;18.978;2023-05-07T06:07:43;11.13;;;3.40;;
59109;SDS011;44895;47.438;18.978;2023-05-07T06:10:47;5.28;;;2.35;;
59109;SDS011;44895;47.438;18.978;2023-05-07T06:13:51;9.57;;;3.10;;
59109;SDS011;44895;47.438;18.978;2023-05-07T06:16:56;5.40;;;2.75;;
59109;SDS011;44895;47.438;18.978;2023-05-07T06:20:00;6.05;;;2.75;;
59109;SDS011;44895;47.438;18.978;2023-05-07T06:23:04;6.05;;;3.35;;
59109;SDS011;44895;47.438;18.978;2023-05-07T06:26:10;4.78;;;2.35;;
59109;SDS011;44895;47.438;18.978;2023-05-07T06:29:18;6.45;;;2.28;;
59109;SDS011;44895;47.438;18.978;2023-05-07T06:32:22;7.55;;;3.08;;
59109;SDS011;44895;47.438;18.978;2023-05-07T06:35:27;5.35;;;2.83;;
59109;SDS011;44895;47.438;18.978;2023-05-07T06:38:31;5.38;;;2.30;;
59109;SDS011;44895;47.438;18.978;2023-05-07T06:41:35;9.45;;;2.40;;
59109;SDS011;44895;47.438;18.978;2023-05-07T06:44:44;6.63;;;2.17;;
59109;SDS011;44895;47.438;18.978;2023-05-07T06:47:50;5.53;;;2.57;;
59109;SDS011;44895;47.438;18.978;2023-05-07T06:50:55;4.97;;;2.22;;
59109;SDS011;44895;47.438;18.978;2023-05-07T06:54:01;4.38;;;1.80;;
59109;SDS011;44895;47.438;18.978;2023-05-07T06:57:08;5.00;;;2.17;;
59109;SDS011;44895;47.438;18.978;2023-05-07T07:00:12;4.95;;;2.70;;
59109;SDS011;44895;47.438;18.978;2023-05-07T07:03:29;5.75;;;2.13;;
59109;SDS011;44895;47.438;18.978;2023-05-07T07:06:33;4.97;;;2.33;;
59109;SDS011;44895;47.438;18.978;2023-05-07T07:09:40;6.55;;;2.33;;
59109;SDS011;44895;47.438;18.978;2023-05-07T07:12:46;5.72;;;2.63;;
59109;SDS011;44895;47.438;18.978;2023-05-07T07:15:52;4.75;;;1.95;;
59109;SDS011;44895;47.438;18.978;2023-05-07T07:18:57;4.85;;;2.00;;
59109;SDS011;44895;47.438;18.978;2023-05-07T07:22:01;3.78;;;2.10;;
59109;SDS011;44895;47.438;18.978;2023-05-07T07:25:05;4.38;;;1.50;;
59109;SDS011;44895;47.438;18.978;2023-05-07T07:28:09;5.88;;;3.28;;
59109;SDS011;44895;47.438;18.978;2023-05-07T07:31:15;8.27;;;3.80;;
59109;SDS011;44895;47.438;18.978;2023-05-07T07:34:19;6.85;;;3.58;;
59109;SDS011;44895;47.438;18.978;2023-05-07T07:37:23;9.10;;;3.95;;
59109;SDS011;44895;47.438;18.978;2023-05-07T07:40:29;7.57;;;4.05;;
59109;SDS011;44895;47.438;18.978;2023-05-07T07:43:33;7.97;;;3.75;;
59109;SDS011;44895;47.438;18.978;2023-05-07T07:46:37;6.95;;;4.03;;
59109;SDS011;44895;47.438;18.978;2023-05-07T07:49:41;7.07;;;4.03;;
59109;SDS011;44895;47.438;18.978;2023-05-07T07:52:47;7.60;;;4.47;;
59109;SDS011;44895;47.438;18.978;2023-05-07T07:55:53;7.88;;;4.20;;
59109;SDS011;44895;47.438;18.978;2023-05-07T07:58:59;9.10;;;4.10;;
59109;SDS011;44895;47.438;18.978;2023-05-07T08:02:03;9.70;;;4.60;;
59109;SDS011;44895;47.438;18.978;2023-05-07T08:05:08;8.02;;;4.30;;
59109;SDS011;44895;47.438;18.978;2023-05-07T08:08:12;9.60;;;4.60;;
59109;SDS011;44895;47.438;18.978;2023-05-07T08:11:17;7.65;;;3.85;;
59109;SDS011;44895;47.438;18.978;2023-05-07T08:14:21;9.35;;;4.45;;
59109;SDS011;44895;47.438;18.978;2023-05-07T08:17:25;12.15;;;6.05;;
59109;SDS011;44895;47.438;18.978;2023-05-07T08:20:29;8.18;;;5.53;;
59109;SDS011;44895;47.438;18.978;2023-05-07T08:23:34;9.30;;;5.85;;
59109;SDS011;44895;47.438;18.978;2023-05-07T08:26:38;9.13;;;6.07;;
59109;SDS011;44895;47.438;18.978;2023-05-07T08:29:43;11.98;;;7.05;;
59109;SDS011;44895;47.438;18.978;2023-05-07T08:32:51;10.75;;;6.38;;
59109;SDS011;44895;47.438;18.978;2023-05-07T08:35:55;12.38;;;6.72;;
59109;SDS011;44895;47.438;18.978;2023-05-07T08:38:59;8.93;;;5.72;;
59109;SDS011;44895;47.438;18.978;2023-05-07T08:42:03;10.82;;;6.55;;
59109;SDS011;44895;47.438;18.978;2023-05-07T08:45:12;8.73;;;5.70;;
59109;SDS011;44895;47.438;18.978;2023-05-07T08:48:21;10.95;;;6.75;;
59109;SDS011;44895;47.438;18.978;2023-05-07T08:51:34;9.70;;;6.07;;
59109;SDS011;44895;47.438;18.978;2023-05-07T08:54:39;9.90;;;6.28;;
59109;SDS011;44895;47.438;18.978;2023-05-07T08:57:45;9.23;;;5.80;;
59109;SDS011;44895;47.438;18.978;2023-05-07T09:00:50;10.30;;;6.22;;
59109;SDS011;44895;47.438;18.978;2023-05-07T09:03:57;13.30;;;6.95;;
59109;SDS011;44895;47.438;18.978;2023-05-07T09:07:04;8.50;;;4.85;;
59109;SDS011;44895;47.438;18.978;2023-05-07T09:10:11;9.80;;;5.70;;
59109;SDS011;44895;47.438;18.978;2023-05-07T09:13:17;9.70;;;5.65;;
59109;SDS011;44895;47.438;18.978;2023-05-07T09:16:21;9.35;;;5.10;;
59109;SDS011;44895;47.438;18.978;2023-05-07T09:19:26;8.27;;;4.80;;
59109;SDS011;44895;47.438;18.978;2023-05-07T09:22:32;9.93;;;5.10;;
59109;SDS011;44895;47.438;18.978;2023-05-07T09:25:41;9.07;;;4.40;;
59109;SDS011;44895;47.438;18.978;2023-05-07T09:28:51;6.32;;;3.95;;
59109;SDS011;44895;47.438;18.978;2023-05-07T09:31:56;9.85;;;4.60;;
59109;SDS011;44895;47.438;18.978;2023-05-07T09:35:01;6.82;;;3.58;;
59109;SDS011;44895;47.438;18.978;2023-05-07T09:38:06;6.60;;;3.75;;
59109;SDS011;44895;47.438;18.978;2023-05-07T09:41:13;6.90;;;3.40;;
59109;SDS011;44895;47.438;18.978;2023-05-07T09:44:31;5.43;;;2.72;;
59109;SDS011;44895;47.438;18.978;2023-05-07T09:47:35;7.80;;;3.15;;
59109;SDS011;44895;47.438;18.978;2023-05-07T09:50:49;5.00;;;2.35;;
59109;SDS011;44895;47.438;18.978;2023-05-07T09:53:58;6.65;;;3.25;;
59109;SDS011;44895;47.438;18.978;2023-05-07T09:57:12;6.47;;;2.90;;
59109;SDS011;44895;47.438;18.978;2023-05-07T10:00:20;4.80;;;2.38;;
59109;SDS011;44895;47.438;18.978;2023-05-07T10:03:24;5.32;;;2.40;;
59109;SDS011;44895;47.438;18.978;2023-05-07T10:06:37;6.05;;;2.97;;
59109;SDS011;44895;47.438;18.978;2023-05-07T10:09:42;5.82;;;2.67;;
59109;SDS011;44895;47.438;18.978;2023-05-07T10:12:56;8.30;;;3.17;;
59109;SDS011;44895;47.438;18.978;2023-05-07T10:16:07;6.35;;;3.15;;
59109;SDS011;44895;47.438;18.978;2023-05-07T10:19:17;7.97;;;3.67;;
59109;SDS011;44895;47.438;18.978;2023-05-07T10:22:27;8.95;;;4.00;;
59109;SDS011;44895;47.438;18.978;2023-05-07T10:25:33;7.28;;;4.10;;
59109;SDS011;44895;47.438;18.978;2023-05-07T10:28:45;8.52;;;4.45;;
59109;SDS011;44895;47.438;18.978;2023-05-07T10:35:14;7.47;;;4.63;;
59109;SDS011;44895;47.438;18.978;2023-05-07T10:38:23;10.48;;;4.10;;
59109;SDS011;44895;47.438;18.978;2023-05-07T10:41:28;7.60;;;4.40;;
59109;SDS011;44895;47.438;18.978;2023-05-07T10:44:32;8.13;;;4.18;;
59109;SDS011;44895;47.438;18.978;2023-05-07T10:48:13;8.38;;;5.13;;
59109;SDS011;44895;47.438;18.978;2023-05-07T10:51:27;7.35;;;3.80;;
59109;SDS011;44895;47.438;18.978;2023-05-07T10:54:39;6.78;;;3.80;;
59109;SDS011;44895;47.438;18.978;2023-05-07T10:57:48;8.00;;;2.72;;
59109;SDS011;44895;47.438;18.978;2023-05-07T11:00:58;7.35;;;3.15;;
59109;SDS011;44895;47.438;18.978;2023-05-07T11:04:14;9.30;;;2.88;;
59109;SDS011;44895;47.438;18.978;2023-05-07T11:07:26;5.68;;;2.75;;
59109;SDS011;44895;47.438;18.978;2023-05-07T11:10:55;4.90;;;2.35;;
59109;SDS011;44895;47.438;18.978;2023-05-07T11:17:54;5.40;;;2.88;;
59109;SDS011;44895;47.438;18.978;2023-05-07T11:20:59;6.85;;;2.75;;
59109;SDS011;44895;47.438;18.978;2023-05-07T11:24:15;6.07;;;2.53;;
59109;SDS011;44895;47.438;18.978;2023-05-07T11:27:26;6.00;;;2.95;;
59109;SDS011;44895;47.438;18.978;2023-05-07T11:30:33;5.50;;;2.60;;
59109;SDS011;44895;47.438;18.978;2023-05-07T11:33:38;6.25;;;2.42;;
59109;SDS011;44895;47.438;18.978;2023-05-07T11:36:44;6.47;;;2.95;;
59109;SDS011;44895;47.438;18.978;2023-05-07T11:40:01;5.70;;;2.38;;
59109;SDS011;44895;47.438;18.978;2023-05-07T11:43:10;4.53;;;2.17;;
59109;SDS011;44895;47.438;18.978;2023-05-07T11:46:14;5.13;;;2.40;;
59109;SDS011;44895;47.438;18.978;2023-05-07T11:49:18;4.65;;;2.97;;
59109;SDS011;44895;47.438;18.978;2023-05-07T11:52:22;5.18;;;2.72;;
59109;SDS011;44895;47.438;18.978;2023-05-07T11:55:27;5.18;;;2.50;;
59109;SDS011;44895;47.438;18.978;2023-05-07T11:58:30;3.88;;;2.13;;
59109;SDS011;44895;47.438;18.978;2023-05-07T12:01:35;7.30;;;3.17;;
59109;SDS011;44895;47.438;18.978;2023-05-07T12:04:39;4.82;;;2.22;;
59109;SDS011;44895;47.438;18.978;2023-05-07T12:07:43;6.53;;;3.08;;
59109;SDS011;44895;47.438;18.978;2023-05-07T12:10:49;5.43;;;2.60;;
59109;SDS011;44895;47.438;18.978;2023-05-07T12:13:53;7.25;;;2.78;;
59109;SDS011;44895;47.438;18.978;2023-05-07T12:16:59;4.78;;;2.53;;
59109;SDS011;44895;47.438;18.978;2023-05-07T12:23:10;4.63;;;2.08;;
59109;SDS011;44895;47.438;18.978;2023-05-07T12:26:14;4.28;;;1.90;;
59109;SDS011;44895;47.438;18.978;2023-05-07T12:29:20;5.60;;;2.40;;
59109;SDS011;44895;47.438;18.978;2023-05-07T12:32:25;5.15;;;2.35;;
59109;SDS011;44895;47.438;18.978;2023-05-07T12:35:29;5.05;;;2.45;;
59109;SDS011;44895;47.438;18.978;2023-05-07T12:38:34;7.88;;;2.80;;
59109;SDS011;44895;47.438;18.978;2023-05-07T12:41:55;8.35;;;3.17;;
59109;SDS011;44895;47.438;18.978;2023-05-07T12:45:08;4.55;;;2.00;;
59109;SDS011;44895;47.438;18.978;2023-05-07T12:48:16;3.53;;;1.90;;
59109;SDS011;44895;47.438;18.978;2023-05-07T12:51:20;5.13;;;2.75;;
59109;SDS011;44895;47.438;18.978;2023-05-07T12:54:27;5.60;;;2.50;;
59109;SDS011;44895;47.438;18.978;2023-05-07T12:57:39;7.60;;;2.40;;
59109;SDS011;44895;47.438;18.978;2023-05-07T13:00:51;4.97;;;2.65;;
59109;SDS011;44895;47.438;18.978;2023-05-07T13:03:55;5.35;;;2.83;;
59109;SDS011;44895;47.438;18.978;2023-05-07T13:06:59;5.43;;;2.72;;
59109;SDS011;44895;47.438;18.978;2023-05-07T13:10:03;4.72;;;2.53;;
59109;SDS011;44895;47.438;18.978;2023-05-07T13:13:08;7.72;;;3.50;;
59109;SDS011;44895;47.438;18.978;2023-05-07T13:16:11;5.00;;;2.50;;
59109;SDS011;44895;47.438;18.978;2023-05-07T13:19:15;5.18;;;2.35;;
59109;SDS011;44895;47.438;18.978;2023-05-07T13:22:19;5.43;;;2.45;;
59109;SDS011;44895;47.438;18.978;2023-05-07T13:25:23;3.88;;;2.22;;
59109;SDS011;44895;47.438;18.978;2023-05-07T13:28:26;6.60;;;2.90;;
59109;SDS011;44895;47.438;18.978;2023-05-07T13:31:30;4.32;;;1.67;;
59109;SDS011;44895;47.438;18.978;2023-05-07T13:34:34;5.40;;;2.63;;
59109;SDS011;44895;47.438;18.978;2023-05-07T13:37:38;11.07;;;2.85;;
59109;SDS011;44895;47.438;18.978;2023-05-07T13:40:42;5.78;;;2.70;;
59109;SDS011;44895;47.438;18.978;2023-05-07T13:43:46;4.78;;;2.35;;
59109;SDS011;44895;47.438;18.978;2023-05-07T13:46:49;4.07;;;1.95;;
59109;SDS011;44895;47.438;18.978;2023-05-07T13:49:53;7.63;;;2.70;;
59109;SDS011;44895;47.438;18.978;2023-05-07T13:52:57;4.32;;;2.15;;
59109;SDS011;44895;47.438;18.978;2023-05-07T13:56:01;6.22;;;2.60;;
59109;SDS011;44895;47.438;18.978;2023-05-07T13:59:07;13.02;;;4.47;;
59109;SDS011;44895;47.438;18.978;2023-05-07T14:02:11;5.18;;;2.28;;
59109;SDS011;44895;47.438;18.978;2023-05-07T14:05:15;7.00;;;2.85;;
59109;SDS011;44895;47.438;18.978;2023-05-07T14:08:19;6.40;;;2.92;;
59109;SDS011;44895;47.438;18.978;2023-05-07T14:11:23;5.70;;;3.00;;
59109;SDS011;44895;47.438;18.978;2023-05-07T14:14:27;5.82;;;2.70;;
59109;SDS011;44895;47.438;18.978;2023-05-07T14:17:30;5.53;;;2.63;;
59109;SDS011;44895;47.438;18.978;2023-05-07T14:20:34;6.85;;;3.22;;
59109;SDS011;44895;47.438;18.978;2023-05-07T14:23:40;4.60;;;2.40;;
59109;SDS011;44895;47.438;18.978;2023-05-07T14:26:43;8.52;;;2.63;;
59109;SDS011;44895;47.438;18.978;2023-05-07T14:29:48;4.85;;;2.20;;
59109;SDS011;44895;47.438;18.978;2023-05-07T14:32:54;4.25;;;1.95;;
59109;SDS011;44895;47.438;18.978;2023-05-07T14:35:58;8.15;;;2.60;;
59109;SDS011;44895;47.438;18.978;2023-05-07T14:39:01;5.05;;;2.78;;
59109;SDS011;44895;47.438;18.978;2023-05-07T14:42:06;6.30;;;3.28;;
59109;SDS011;44895;47.438;18.978;2023-05-07T14:45:10;6.50;;;2.63;;
59109;SDS011;44895;47.438;18.978;2023-05-07T14:48:15;7.88;;;3.92;;
59109;SDS011;44895;47.438;18.978;2023-05-07T14:51:18;6.93;;;3.10;;
59109;SDS011;44895;47.438;18.978;2023-05-07T14:54:22;5.50;;;3.10;;
59109;SDS011;44895;47.438;18.978;2023-05-07T14:57:26;6.35;;;3.08;;
59109;SDS011;44895;47.438;18.978;2023-05-07T15:00:29;7.85;;;3.70;;
59109;SDS011;44895;47.438;18.978;2023-05-07T15:03:33;7.72;;;3.58;;
59109;SDS011;44895;47.438;18.978;2023-05-07T15:06:37;7.38;;;3.55;;
59109;SDS011;44895;47.438;18.978;2023-05-07T15:09:42;6.47;;;3.53;;
59109;SDS011;44895;47.438;18.978;2023-05-07T15:12:46;6.70;;;3.08;;
59109;SDS011;44895;47.438;18.978;2023-05-07T15:15:50;7.70;;;4.13;;
59109;SDS011;44895;47.438;18.978;2023-05-07T15:18:54;6.18;;;3.70;;
59109;SDS011;44895;47.438;18.978;2023-05-07T15:21:59;7.60;;;3.88;;
59109;SDS011;44895;47.438;18.978;2023-05-07T15:25:06;8.45;;;4.30;;
59109;SDS011;44895;47.438;18.978;2023-05-07T15:28:10;6.70;;;3.33;;
59109;SDS011;44895;47.438;18.978;2023-05-07T15:31:14;6.90;;;3.42;;
59109;SDS011;44895;47.438;18.978;2023-05-07T15:34:20;9.43;;;3.60;;
59109;SDS011;44895;47.438;18.978;2023-05-07T15:37:24;8.57;;;3.58;;
59109;SDS011;44895;47.438;18.978;2023-05-07T15:40:28;7.32;;;3.75;;
59109;SDS011;44895;47.438;18.978;2023-05-07T15:43:32;6.53;;;3.03;;
59109;SDS011;44895;47.438;18.978;2023-05-07T15:46:36;6.47;;;2.80;;
59109;SDS011;44895;47.438;18.978;2023-05-07T15:49:40;5.78;;;2.45;;
59109;SDS011;44895;47.438;18.978;2023-05-07T15:52:46;7.13;;;2.85;;
59109;SDS011;44895;47.438;18.978;2023-05-07T15:55:50;5.82;;;2.45;;
59109;SDS011;44895;47.438;18.978;2023-05-07T15:58:54;4.88;;;2.13;;
59109;SDS011;44895;47.438;18.978;2023-05-07T16:01:58;4.43;;;1.90;;
59109;SDS011;44895;47.438;18.978;2023-05-07T16:05:02;5.03;;;2.50;;
59109;SDS011;44895;47.438;18.978;2023-05-07T16:08:06;4.38;;;1.83;;
59109;SDS011;44895;47.438;18.978;2023-05-07T16:11:10;6.43;;;2.83;;
59109;SDS011;44895;47.438;18.978;2023-05-07T16:14:14;4.43;;;2.00;;
59109;SDS011;44895;47.438;18.978;2023-05-07T16:17:17;3.22;;;1.55;;
59109;SDS011;44895;47.438;18.978;2023-05-07T16:20:28;4.80;;;1.45;;
59109;SDS011;44895;47.438;18.978;2023-05-07T16:23:32;3.67;;;1.58;;
59109;SDS011;44895;47.438;18.978;2023-05-07T16:26:36;5.75;;;1.98;;
59109;SDS011;44895;47.438;18.978;2023-05-07T16:29:40;7.18;;;2.25;;
59109;SDS011;44895;47.438;18.978;2023-05-07T16:32:44;5.28;;;1.95;;
59109;SDS011;44895;47.438;18.978;2023-05-07T16:35:51;5.25;;;1.70;;
59109;SDS011;44895;47.438;18.978;2023-05-07T16:38:55;3.58;;;1.50;;
59109;SDS011;44895;47.438;18.978;2023-05-07T16:41:59;6.63;;;2.72;;
59109;SDS011;44895;47.438;18.978;2023-05-07T16:45:04;6.90;;;1.65;;
59109;SDS011;44895;47.438;18.978;2023-05-07T16:48:08;5.15;;;1.60;;
59109;SDS011;44895;47.438;18.978;2023-05-07T16:51:12;3.70;;;1.45;;
59109;SDS011;44895;47.438;18.978;2023-05-07T16:54:16;3.47;;;1.60;;
59109;SDS011;44895;47.438;18.978;2023-05-07T16:57:20;2.45;;;1.10;;
59109;SDS011;44895;47.438;18.978;2023-05-07T17:00:23;5.88;;;1.73;;
59109;SDS011;44895;47.438;18.978;2023-05-07T17:03:27;5.22;;;2.08;;
59109;SDS011;44895;47.438;18.978;2023-05-07T17:06:32;4.97;;;1.48;;
59109;SDS011;44895;47.438;18.978;2023-05-07T17:09:36;4.10;;;1.60;;
59109;SDS011;44895;47.438;18.978;2023-05-07T17:12:40;4.05;;;1.70;;
59109;SDS011;44895;47.438;18.978;2023-05-07T17:15:43;3.95;;;1.73;;
59109;SDS011;44895;47.438;18.978;2023-05-07T17:18:48;4.57;;;1.60;;
59109;SDS011;44895;47.438;18.978;2023-05-07T17:21:52;6.82;;;2.28;;
59109;SDS011;44895;47.438;18.978;2023-05-07T17:24:57;4.03;;;1.75;;
59109;SDS011;44895;47.438;18.978;2023-05-07T17:28:01;3.75;;;1.45;;
59109;SDS011;44895;47.438;18.978;2023-05-07T17:31:05;5.75;;;1.40;;
59109;SDS011;44895;47.438;18.978;2023-05-07T17:34:09;6.63;;;1.67;;
59109;SDS011;44895;47.438;18.978;2023-05-07T17:37:14;2.65;;;1.17;;
59109;SDS011;44895;47.438;18.978;2023-05-07T17:40:19;3.90;;;1.92;;
59109;SDS011;44895;47.438;18.978;2023-05-07T17:43:24;4.88;;;2.35;;
59109;SDS011;44895;47.438;18.978;2023-05-07T17:46:28;3.80;;;1.42;;
59109;SDS011;44895;47.438;18.978;2023-05-07T17:49:32;5.35;;;1.95;;
59109;SDS011;44895;47.438;18.978;2023-05-07T17:52:37;7.03;;;2.00;;
59109;SDS011;44895;47.438;18.978;2023-05-07T17:55:42;4.72;;;1.63;;
59109;SDS011;44895;47.438;18.978;2023-05-07T17:58:47;3.58;;;1.63;;
59109;SDS011;44895;47.438;18.978;2023-05-07T18:01:51;4.28;;;1.65;;
59109;SDS011;44895;47.438;18.978;2023-05-07T18:04:55;4.53;;;1.77;;
59109;SDS011;44895;47.438;18.978;2023-05-07T18:07:59;3.60;;;1.23;;
59109;SDS011;44895;47.438;18.978;2023-05-07T18:11:02;5.90;;;2.50;;
59109;SDS011;44895;47.438;18.978;2023-05-07T18:14:08;6.45;;;2.40;;
59109;SDS011;44895;47.438;18.978;2023-05-07T18:17:11;5.28;;;1.60;;
59109;SDS011;44895;47.438;18.978;2023-05-07T18:20:15;6.80;;;2.28;;
59109;SDS011;44895;47.438;18.978;2023-05-07T18:23:20;5.53;;;2.10;;
59109;SDS011;44895;47.438;18.978;2023-05-07T18:26:24;5.20;;;2.10;;
59109;SDS011;44895;47.438;18.978;2023-05-07T18:29:28;5.60;;;1.88;;
59109;SDS011;44895;47.438;18.978;2023-05-07T18:32:33;5.85;;;2.35;;